Hays Regional Airport Hays US
ICAO: KHYS
IATA: HYS
Category: Medium
Scheduled Services: No

Elevation: 1999 ft
TransAlt. 18000 ft.

Airport Communications:
AWOS 3:125.525
KANSAS CITY CNTR:124.4
WICHITA RDO:122.3
CTAF/UNICOM:122.8

KHYS Zoom In..

If you have problems with the map follow the link
https://www.worldairports.se/pages/airport.php?
ICAO=KHYS

Runways:

(A) RW 04 length 4501 ft width 75 ft
---- / hdg 40

(B) RW 16 length 6501 ft width 100 ft
---- / hdg 159

(C) RW 22 length 4501 ft width 75 ft
---- / hdg 220

(D) RW 34 length 6501 ft width 100 ft
ILS 111.50 / hdg 339

Location; KHYS
Day. 06 / Time. 02.56 Zulu
* Altimeter: 30.11
* Temperature: 07° c. 44.6°f.
* Wind from: 340° Speed 15 kn.
Dewpoint: 00° c.
Visibility: 10 Statute Miles.
Clouds: Overcast 9000 ft.

KHYS 060256Z AUTO 34015KT 10SM OVC090 07/00 A3011 RMK AO2 PRESRR SLP206 T00720000 51047


Wind From 340°
Speed 15 kn.

 
 
jpsmedia worldairports.se 2019   terms of use